Time;durP1;ratioP1;P1;durP2;ratioP2;P2;SDS_P1;SDS_P2;PMS_P1;PMS_P2;Temp;Humidity;BMP_temperature;BMP_pressure;BME280_temperature;BME280_humidity;BME280_pressure;Samples;Min_cycle;Max_cycle;Signal;HPM_P1;HPM_P2
2023/07/26 00:02:31;;;;;;;1.80;1.00;;;14.20;99.90;;;;;;4992614;28;20038;-78
2023/07/26 00:04:58;;;;;;;3.20;1.20;;;14.20;99.90;;;;;;4982375;28;20590;-79
2023/07/26 00:07:24;;;;;;;2.38;1.30;;;14.20;99.90;;;;;;5026524;28;20049;-79
2023/07/26 00:09:50;;;;;;;4.90;1.15;;;14.20;99.90;;;;;;4990495;28;20029;-79
2023/07/26 00:12:16;;;;;;;3.97;1.25;;;14.10;99.90;;;;;;4994581;28;20117;-78
2023/07/26 00:14:42;;;;;;;3.67;1.40;;;14.10;99.90;;;;;;4983122;28;20112;-78
2023/07/26 00:17:08;;;;;;;3.05;1.20;;;14.10;99.90;;;;;;4996940;28;20108;-77
2023/07/26 00:19:34;;;;;;;2.53;1.00;;;14.00;99.90;;;;;;4985863;28;20037;-78
2023/07/26 00:22:01;;;;;;;1.80;1.05;;;13.90;99.90;;;;;;5002008;28;20037;-79
2023/07/26 00:24:27;;;;;;;3.80;1.30;;;13.90;99.90;;;;;;5000729;28;20022;-78
2023/07/26 00:26:52;;;;;;;2.72;1.10;;;13.90;99.90;;;;;;4981666;28;20062;-79
2023/07/26 00:29:18;;;;;;;3.92;1.10;;;13.90;99.90;;;;;;4978209;28;20030;-78
2023/07/26 00:31:44;;;;;;;1.73;0.88;;;13.90;99.90;;;;;;5005659;28;20029;-78
2023/07/26 00:34:09;;;;;;;2.38;1.00;;;13.90;99.90;;;;;;5015343;28;20029;-78
2023/07/26 00:36:35;;;;;;;2.33;1.05;;;13.80;99.90;;;;;;4997906;28;20021;-78
2023/07/26 00:39:03;;;;;;;2.65;1.40;;;13.90;99.90;;;;;;5014207;28;20047;-77
2023/07/26 00:41:29;;;;;;;3.42;1.40;;;13.80;99.90;;;;;;5015612;28;20033;-78
2023/07/26 00:43:55;;;;;;;4.05;1.27;;;13.70;99.90;;;;;;5032633;28;20049;-79
2023/07/26 00:46:21;;;;;;;2.45;1.33;;;13.70;99.90;;;;;;5015719;28;20052;-78
2023/07/26 00:48:48;;;;;;;1.90;1.00;;;13.70;99.90;;;;;;5050318;28;20331;-79
2023/07/26 00:51:14;;;;;;;3.13;1.17;;;13.80;99.90;;;;;;5032005;28;20033;-78
2023/07/26 00:53:39;;;;;;;2.47;1.17;;;13.80;99.90;;;;;;5050558;28;20021;-78
2023/07/26 00:56:05;;;;;;;2.00;1.40;;;13.90;99.90;;;;;;5051519;28;20040;-79
2023/07/26 00:58:31;;;;;;;2.33;1.48;;;13.90;99.90;;;;;;5052287;28;20021;-78
2023/07/26 01:00:58;;;;;;;2.00;1.15;;;13.90;99.90;;;;;;5031829;28;20044;-78
2023/07/26 01:03:24;;;;;;;1.65;0.98;;;13.90;99.90;;;;;;5033155;28;20092;-79
2023/07/26 01:06:02;;;;;;;2.92;1.05;;;13.90;99.90;;;;;;4998820;28;20439;-78
2023/07/26 01:08:31;;;;;;;4.75;0.95;;;13.90;99.90;;;;;;5033431;28;20025;-78
2023/07/26 01:11:10;;;;;;;1.77;0.90;;;13.90;99.90;;;;;;5032589;28;20052;-78
2023/07/26 01:13:42;;;;;;;2.25;1.10;;;13.90;99.90;;;;;;5016101;28;20018;-78
2023/07/26 01:16:08;;;;;;;1.88;0.80;;;13.90;99.90;;;;;;5017876;28;20054;-79
2023/07/26 01:18:34;;;;;;;1.85;0.98;;;13.80;99.90;;;;;;5013439;28;20056;-79
2023/07/26 01:21:00;;;;;;;1.50;0.80;;;13.80;99.90;;;;;;5037685;28;20022;-80
2023/07/26 01:23:25;;;;;;;1.65;0.63;;;13.80;99.90;;;;;;5038652;28;20029;-80
2023/07/26 01:25:51;;;;;;;1.10;0.50;;;13.80;99.90;;;;;;5034856;28;20081;-79
2023/07/26 01:28:17;;;;;;;1.23;0.52;;;13.70;99.90;;;;;;5027267;28;20068;-80
2023/07/26 01:30:43;;;;;;;1.52;0.43;;;13.70;99.90;;;;;;5010103;28;20037;-79
2023/07/26 01:33:10;;;;;;;0.95;0.40;;;13.70;99.90;;;;;;5018825;28;20090;-78
2023/07/26 01:35:37;;;;;;;0.70;0.40;;;13.70;99.90;;;;;;5022680;28;20029;-79
2023/07/26 01:38:03;;;;;;;0.82;0.30;;;13.70;99.90;;;;;;5031878;28;20021;-79
2023/07/26 01:40:29;;;;;;;1.98;0.52;;;13.70;99.90;;;;;;5033656;28;20085;-78
2023/07/26 01:42:56;;;;;;;1.45;0.65;;;13.60;99.90;;;;;;5035862;28;20032;-78
2023/07/26 01:45:22;;;;;;;2.22;0.60;;;13.60;99.90;;;;;;5035277;28;20014;-78
2023/07/26 01:47:49;;;;;;;1.40;0.57;;;13.60;99.90;;;;;;5036457;28;20037;-79
2023/07/26 01:50:15;;;;;;;1.10;0.57;;;13.60;99.90;;;;;;5036089;28;20014;-78
2023/07/26 01:52:40;;;;;;;1.48;0.65;;;13.60;99.90;;;;;;5035802;28;20037;-79
2023/07/26 01:55:07;;;;;;;1.63;1.00;;;13.50;99.90;;;;;;5036627;28;20067;-79
2023/07/26 01:57:32;;;;;;;2.00;0.65;;;13.50;99.90;;;;;;5019859;28;20033;-80
2023/07/26 01:59:59;;;;;;;1.23;0.40;;;13.50;99.90;;;;;;5036230;28;20057;-79
2023/07/26 02:02:25;;;;;;;1.58;0.70;;;13.40;99.90;;;;;;5036412;28;20072;-80
2023/07/26 02:04:50;;;;;;;0.90;0.40;;;13.30;99.90;;;;;;5018733;28;20034;-79
2023/07/26 02:07:16;;;;;;;0.60;0.50;;;13.30;99.90;;;;;;5019308;28;20034;-79
2023/07/26 02:09:43;;;;;;;0.35;0.30;;;13.30;99.90;;;;;;5035894;28;20053;-79
2023/07/26 02:12:08;;;;;;;1.77;0.43;;;13.30;99.90;;;;;;5019210;28;20034;-79
2023/07/26 02:14:34;;;;;;;0.93;0.38;;;13.30;99.90;;;;;;5017996;28;20026;-79
2023/07/26 02:17:00;;;;;;;0.45;0.40;;;13.40;99.90;;;;;;5017430;28;20033;-79
2023/07/26 02:19:26;;;;;;;0.98;0.50;;;13.40;99.90;;;;;;5015859;28;20032;-79
2023/07/26 02:21:51;;;;;;;1.52;0.50;;;13.40;99.90;;;;;;5015262;28;20040;-79
2023/07/26 02:24:17;;;;;;;0.60;0.30;;;13.40;99.90;;;;;;5032490;28;20042;-79
2023/07/26 02:26:43;;;;;;;0.80;0.35;;;13.40;99.90;;;;;;5032374;28;20042;-79
2023/07/26 02:29:08;;;;;;;1.05;0.32;;;13.40;99.90;;;;;;5032583;28;20061;-78
2023/07/26 02:31:34;;;;;;;0.68;0.50;;;13.40;99.90;;;;;;5015399;28;20048;-79
2023/07/26 02:34:00;;;;;;;1.10;0.38;;;13.40;99.90;;;;;;5034011;28;20036;-79
2023/07/26 02:36:25;;;;;;;2.42;0.60;;;13.40;99.90;;;;;;5017184;28;20052;-79
2023/07/26 02:38:51;;;;;;;0.98;0.52;;;13.30;99.90;;;;;;5034137;28;20021;-80
2023/07/26 02:41:17;;;;;;;0.45;0.30;;;13.30;99.90;;;;;;5034157;28;20530;-78
2023/07/26 02:43:42;;;;;;;0.77;0.50;;;13.30;99.90;;;;;;5033681;28;20049;-79
2023/07/26 02:46:09;;;;;;;1.40;0.70;;;13.20;99.90;;;;;;5016492;28;20101;-78
2023/07/26 02:48:35;;;;;;;1.13;0.80;;;13.20;99.90;;;;;;5033626;28;20082;-79
2023/07/26 02:51:01;;;;;;;0.70;0.60;;;13.30;99.90;;;;;;5016636;28;20101;-79
2023/07/26 02:53:28;;;;;;;1.23;0.50;;;13.30;99.90;;;;;;5016427;28;20053;-78
2023/07/26 02:55:53;;;;;;;1.10;0.50;;;13.30;99.90;;;;;;5018474;28;20385;-79
2023/07/26 02:58:19;;;;;;;0.90;0.68;;;13.30;99.90;;;;;;5019355;28;20018;-80
2023/07/26 03:00:45;;;;;;;2.38;1.00;;;13.20;99.90;;;;;;5019468;28;20018;-80
2023/07/26 03:03:11;;;;;;;1.10;0.63;;;13.20;99.90;;;;;;5035258;28;20029;-79
2023/07/26 03:05:37;;;;;;;2.35;0.98;;;13.20;99.90;;;;;;5017096;28;20038;-78
2023/07/26 03:08:03;;;;;;;2.60;0.80;;;13.10;99.90;;;;;;5026838;28;20034;-79
2023/07/26 03:10:29;;;;;;;0.75;0.50;;;13.10;99.90;;;;;;5019884;28;20040;-80
2023/07/26 03:12:55;;;;;;;0.50;0.40;;;13.10;99.90;;;;;;5000336;28;20053;-79
2023/07/26 03:15:21;;;;;;;1.00;0.70;;;13.00;99.90;;;;;;5015342;28;20033;-79
2023/07/26 03:17:46;;;;;;;1.02;0.60;;;12.90;99.90;;;;;;5035386;28;20026;-78
2023/07/26 03:20:12;;;;;;;1.02;0.52;;;12.80;99.90;;;;;;5035751;28;20022;-79
2023/07/26 03:22:38;;;;;;;1.15;0.70;;;12.60;99.90;;;;;;5017966;28;20041;-79
2023/07/26 03:25:04;;;;;;;1.65;0.50;;;12.60;99.90;;;;;;5016226;28;20045;-80
2023/07/26 03:27:29;;;;;;;1.38;0.70;;;12.70;99.90;;;;;;5006694;28;20092;-80
2023/07/26 03:29:55;;;;;;;0.73;0.43;;;12.70;99.90;;;;;;5021357;28;20010;-79
2023/07/26 03:32:21;;;;;;;1.45;0.77;;;12.70;99.90;;;;;;5025467;28;20093;-80
2023/07/26 03:34:47;;;;;;;1.35;0.85;;;12.80;99.90;;;;;;5007794;28;20034;-80
2023/07/26 03:37:12;;;;;;;0.90;0.60;;;12.70;99.90;;;;;;5016003;28;20034;-80
2023/07/26 03:39:38;;;;;;;0.80;0.55;;;12.70;99.90;;;;;;5031582;28;20057;-79
2023/07/26 03:42:04;;;;;;;0.45;0.40;;;12.70;99.90;;;;;;5035694;28;20006;-79
2023/07/26 03:44:30;;;;;;;1.25;0.50;;;12.70;99.90;;;;;;5037997;28;20053;-80
2023/07/26 03:46:55;;;;;;;2.80;0.73;;;12.70;99.90;;;;;;5039383;28;20066;-80
2023/07/26 03:49:21;;;;;;;0.85;0.52;;;12.70;99.90;;;;;;5038427;28;20018;-79
2023/07/26 03:51:47;;;;;;;1.23;0.60;;;12.70;99.90;;;;;;5022586;28;20053;-80
2023/07/26 03:54:12;;;;;;;1.27;0.60;;;12.70;99.90;;;;;;5025816;28;20038;-78
2023/07/26 03:56:38;;;;;;;2.55;0.77;;;12.70;99.90;;;;;;5027681;28;20045;-80
2023/07/26 03:59:04;;;;;;;1.08;0.60;;;12.70;99.90;;;;;;4994836;28;20032;-80
2023/07/26 04:01:29;;;;;;;2.75;0.70;;;12.60;99.90;;;;;;5030162;28;20093;-79
2023/07/26 04:03:55;;;;;;;0.90;0.52;;;12.60;99.90;;;;;;5026975;28;20034;-80
2023/07/26 04:06:20;;;;;;;2.10;0.82;;;12.50;99.90;;;;;;5004320;28;20014;-80
2023/07/26 04:08:46;;;;;;;1.15;0.70;;;12.50;99.90;;;;;;5014662;28;20381;-78
2023/07/26 04:11:12;;;;;;;1.20;0.70;;;12.50;99.90;;;;;;5029207;28;20034;-79
2023/07/26 04:13:38;;;;;;;1.30;0.70;;;12.50;99.90;;;;;;5035296;28;20065;-78
2023/07/26 04:16:13;;;;;;;3.42;0.90;;;12.50;99.90;;;;;;5021438;28;20034;-81
2023/07/26 04:18:41;;;;;;;4.00;0.88;;;12.50;99.90;;;;;;5027548;28;20037;-81
2023/07/26 04:21:15;;;;;;;1.90;0.95;;;12.60;99.90;;;;;;4997091;28;20064;-81
2023/07/26 04:23:53;;;;;;;1.60;1.00;;;12.60;99.90;;;;;;5030228;28;20117;-81
2023/07/26 04:27:29;;;;;;;1.55;0.90;;;12.60;99.90;;;;;;5002564;28;20057;-81
2023/07/26 04:30:37;;;;;;;0.93;0.80;;;12.60;99.90;;;;;;5031875;28;20056;-81
2023/07/26 04:33:03;;;;;;;1.95;0.60;;;12.70;99.90;;;;;;5024634;28;20068;-82
2023/07/26 04:35:29;;;;;;;1.40;0.70;;;12.60;99.90;;;;;;5019325;28;20022;-81
2023/07/26 04:37:54;;;;;;;1.45;0.80;;;12.70;99.90;;;;;;5030432;28;20087;-81
2023/07/26 04:40:20;;;;;;;1.80;0.90;;;12.70;99.90;;;;;;5017768;28;20018;-81
2023/07/26 04:42:46;;;;;;;1.33;0.90;;;12.60;99.90;;;;;;4997897;28;20038;-81
2023/07/26 04:45:11;;;;;;;1.70;0.90;;;12.60;99.90;;;;;;5018581;28;20089;-81
2023/07/26 04:47:40;;;;;;;1.38;0.85;;;12.50;99.90;;;;;;5036069;28;20065;-80
2023/07/26 04:50:08;;;;;;;1.50;0.80;;;12.50;99.90;;;;;;5002460;28;20028;-81
2023/07/26 04:52:37;;;;;;;1.42;0.70;;;12.50;99.90;;;;;;5019215;28;20445;-81
2023/07/26 04:55:06;;;;;;;1.35;0.80;;;12.50;99.90;;;;;;5017280;28;20045;-81
2023/07/26 04:57:31;;;;;;;1.17;0.73;;;12.60;99.90;;;;;;5001957;28;20034;-80
2023/07/26 04:59:57;;;;;;;1.67;0.75;;;12.60;99.90;;;;;;5017593;28;20030;-80
2023/07/26 05:02:23;;;;;;;1.40;0.70;;;12.60;99.90;;;;;;4978513;28;20046;-80
2023/07/26 05:04:48;;;;;;;1.60;0.90;;;12.60;99.90;;;;;;4999682;28;20052;-81
2023/07/26 05:07:14;;;;;;;1.83;1.23;;;12.60;99.90;;;;;;5030398;28;20037;-80
2023/07/26 05:09:40;;;;;;;3.42;1.17;;;12.60;99.90;;;;;;5013194;28;20089;-80
2023/07/26 05:12:09;;;;;;;2.28;0.95;;;12.60;99.90;;;;;;4982349;28;20026;-80
2023/07/26 05:14:34;;;;;;;1.55;1.00;;;12.60;99.90;;;;;;4980773;28;20037;-81
2023/07/26 05:17:00;;;;;;;2.60;1.67;;;12.60;99.90;;;;;;5013299;28;21687;-80
2023/07/26 05:19:26;;;;;;;3.00;1.80;;;12.60;99.90;;;;;;4990891;28;20033;-80
2023/07/26 05:21:51;;;;;;;3.42;1.70;;;12.60;99.90;;;;;;5007916;28;20037;-80
2023/07/26 05:24:17;;;;;;;2.67;1.65;;;12.60;99.90;;;;;;4978809;28;20061;-80
2023/07/26 05:26:42;;;;;;;2.60;1.55;;;12.60;99.90;;;;;;5027201;28;20089;-80
2023/07/26 05:29:08;;;;;;;2.78;1.30;;;12.60;99.90;;;;;;5004076;28;20037;-80
2023/07/26 05:31:34;;;;;;;2.50;1.38;;;12.60;99.90;;;;;;4991914;28;20030;-81
2023/07/26 05:33:59;;;;;;;1.75;1.15;;;12.60;99.90;;;;;;5015299;28;20026;-80
2023/07/26 05:36:25;;;;;;;2.90;1.10;;;12.60;99.90;;;;;;5009051;28;20023;-80
2023/07/26 05:38:50;;;;;;;1.55;0.88;;;12.50;99.90;;;;;;5010941;28;20375;-80
2023/07/26 05:41:16;;;;;;;3.30;1.08;;;12.50;99.90;;;;;;5012781;28;20487;-81
2023/07/26 05:43:42;;;;;;;2.97;1.05;;;12.50;99.90;;;;;;5014193;28;20038;-81
2023/07/26 05:46:08;;;;;;;2.58;1.40;;;12.50;99.90;;;;;;5013197;28;20033;-81
2023/07/26 05:48:33;;;;;;;3.80;2.42;;;12.50;99.90;;;;;;5011897;28;20034;-81
2023/07/26 05:50:59;;;;;;;3.08;1.48;;;12.60;99.90;;;;;;5011924;28;20023;-81
2023/07/26 05:53:25;;;;;;;2.30;1.10;;;12.60;99.90;;;;;;4992486;28;20057;-80
2023/07/26 05:55:50;;;;;;;1.98;0.77;;;12.60;99.90;;;;;;5012853;28;20026;-81
2023/07/26 05:58:16;;;;;;;2.15;0.80;;;12.60;99.90;;;;;;5013414;28;20018;-80
2023/07/26 06:00:42;;;;;;;1.63;0.70;;;12.60;99.90;;;;;;5004179;28;20495;-80
2023/07/26 06:03:07;;;;;;;1.63;0.70;;;12.50;99.90;;;;;;5012510;28;20041;-80
2023/07/26 06:05:33;;;;;;;1.95;1.10;;;12.50;99.90;;;;;;4997764;28;20980;-81
2023/07/26 06:07:59;;;;;;;1.50;1.10;;;12.40;99.90;;;;;;5001796;28;20026;-80
2023/07/26 06:10:24;;;;;;;4.05;1.00;;;12.40;99.90;;;;;;4993135;28;20092;-80
2023/07/26 06:12:50;;;;;;;1.85;1.00;;;12.30;99.90;;;;;;5009994;28;20026;-81
2023/07/26 06:15:16;;;;;;;2.20;1.10;;;12.30;99.90;;;;;;4989358;28;20465;-80
2023/07/26 06:17:42;;;;;;;2.35;1.00;;;12.30;99.90;;;;;;4998988;28;20061;-80
2023/07/26 06:20:10;;;;;;;4.40;1.38;;;12.30;99.90;;;;;;5011702;28;20476;-80
2023/07/26 06:22:36;;;;;;;1.33;0.65;;;12.30;99.90;;;;;;5012101;28;20361;-80
2023/07/26 06:25:02;;;;;;;1.85;0.80;;;12.20;99.90;;;;;;5014554;28;20028;-80
2023/07/26 06:27:29;;;;;;;3.92;1.00;;;12.20;99.90;;;;;;5014515;28;20404;-80
2023/07/26 06:29:55;;;;;;;2.47;1.15;;;12.10;99.90;;;;;;5015474;28;20033;-80
2023/07/26 06:32:20;;;;;;;1.70;1.00;;;12.00;99.90;;;;;;5014485;28;20033;-81
2023/07/26 06:34:46;;;;;;;1.63;0.80;;;12.00;99.90;;;;;;4996758;28;20029;-80
2023/07/26 06:37:12;;;;;;;1.58;0.70;;;11.90;99.90;;;;;;5014950;28;20022;-80
2023/07/26 06:39:37;;;;;;;3.63;0.73;;;11.90;99.90;;;;;;5013673;28;20112;-81
2023/07/26 06:42:04;;;;;;;2.13;0.70;;;11.90;99.90;;;;;;5014453;28;20391;-81
2023/07/26 06:44:29;;;;;;;1.98;0.77;;;11.80;99.90;;;;;;5014285;28;20037;-80
2023/07/26 06:46:55;;;;;;;1.60;0.70;;;11.80;99.90;;;;;;5013647;28;20108;-80
2023/07/26 06:49:20;;;;;;;1.73;0.80;;;11.90;99.90;;;;;;5014094;28;20077;-80
2023/07/26 06:51:49;;;;;;;1.17;0.70;;;11.80;99.90;;;;;;5014085;28;20061;-81
2023/07/26 06:54:15;;;;;;;1.50;0.70;;;11.80;99.90;;;;;;5008639;28;20109;-80
2023/07/26 06:56:40;;;;;;;2.00;1.10;;;11.70;99.90;;;;;;4989940;28;20109;-80
2023/07/26 06:59:11;;;;;;;2.53;1.13;;;11.70;99.90;;;;;;5022002;28;20456;-80
2023/07/26 07:01:36;;;;;;;2.45;1.50;;;11.70;99.90;;;;;;5032319;28;20037;-80
2023/07/26 07:04:02;;;;;;;4.05;2.33;;;11.60;99.90;;;;;;5034319;28;20094;-81
2023/07/26 07:06:28;;;;;;;5.60;3.15;;;11.60;99.90;;;;;;5034017;28;20087;-80
2023/07/26 07:08:53;;;;;;;7.80;3.85;;;11.60;99.90;;;;;;5024901;28;20030;-80
2023/07/26 07:11:19;;;;;;;4.57;2.45;;;11.60;99.90;;;;;;5014418;28;20034;-79
2023/07/26 07:13:45;;;;;;;4.28;2.15;;;11.60;99.90;;;;;;5014583;28;20022;-79
2023/07/26 07:16:10;;;;;;;3.65;1.90;;;11.60;99.90;;;;;;4997129;28;20022;-79
2023/07/26 07:18:36;;;;;;;3.55;2.13;;;11.60;99.90;;;;;;5016614;28;20048;-80
2023/07/26 07:21:03;;;;;;;2.30;0.90;;;11.60;99.90;;;;;;5018478;28;20547;-79
2023/07/26 07:23:32;;;;;;;1.65;0.60;;;11.60;99.90;;;;;;5018868;28;20026;-79
2023/07/26 07:25:57;;;;;;;0.50;0.40;;;11.50;99.90;;;;;;5000929;28;20038;-80
2023/07/26 07:28:23;;;;;;;1.25;0.68;;;11.50;99.90;;;;;;5023219;28;20108;-81
2023/07/26 07:30:49;;;;;;;0.68;0.43;;;11.50;99.90;;;;;;5038133;28;20026;-80
2023/07/26 07:33:15;;;;;;;0.88;0.52;;;11.50;99.90;;;;;;5038755;28;20017;-79
2023/07/26 07:35:41;;;;;;;0.98;0.45;;;11.50;99.90;;;;;;5038301;28;20029;-80
2023/07/26 07:38:07;;;;;;;1.67;0.80;;;11.50;99.90;;;;;;5035061;28;20188;-81
2023/07/26 07:40:32;;;;;;;1.02;0.50;;;11.50;99.90;;;;;;5018322;28;20104;-80
2023/07/26 07:42:58;;;;;;;1.00;0.60;;;11.60;99.90;;;;;;5017426;28;20090;-79
2023/07/26 07:45:27;;;;;;;2.03;0.70;;;11.70;99.90;;;;;;5005447;28;20022;-80
2023/07/26 07:47:52;;;;;;;1.10;0.50;;;11.70;99.90;;;;;;5007079;28;20033;-79
2023/07/26 07:50:18;;;;;;;0.47;0.40;;;11.80;99.90;;;;;;4999715;28;20022;-80
2023/07/26 07:52:44;;;;;;;0.77;0.45;;;11.90;99.90;;;;;;5017843;28;20109;-80
2023/07/26 07:55:09;;;;;;;0.82;0.50;;;12.00;99.90;;;;;;5017583;28;20084;-80
2023/07/26 07:57:35;;;;;;;3.83;0.75;;;12.10;99.90;;;;;;5017768;28;20499;-80
2023/07/26 08:00:02;;;;;;;0.40;0.38;;;12.10;99.90;;;;;;5016177;28;20476;-80
2023/07/26 08:02:27;;;;;;;0.90;0.50;;;12.10;99.90;;;;;;5017713;28;20155;-79
2023/07/26 08:04:53;;;;;;;0.68;0.50;;;12.00;99.90;;;;;;5017591;28;20030;-79
2023/07/26 08:07:19;;;;;;;1.10;0.60;;;11.90;99.90;;;;;;5018083;28;20377;-80
2023/07/26 08:09:45;;;;;;;1.50;0.63;;;11.80;99.90;;;;;;5000162;28;20061;-80
2023/07/26 08:12:10;;;;;;;1.45;0.82;;;11.70;99.90;;;;;;5017578;28;20029;-79
2023/07/26 08:14:36;;;;;;;1.50;0.57;;;11.60;99.90;;;;;;5017556;28;20029;-80
2023/07/26 08:17:02;;;;;;;1.08;0.50;;;11.50;99.90;;;;;;5017503;28;20100;-80
2023/07/26 08:19:27;;;;;;;1.80;0.80;;;11.50;99.90;;;;;;5018281;28;20105;-80
2023/07/26 08:21:54;;;;;;;1.48;0.70;;;11.50;99.90;;;;;;4984569;28;20125;-80
2023/07/26 08:24:19;;;;;;;1.80;0.60;;;11.50;99.90;;;;;;5000866;28;20033;-80
2023/07/26 08:26:45;;;;;;;1.70;0.80;;;11.40;99.90;;;;;;5017903;28;20026;-80
2023/07/26 08:29:11;;;;;;;0.93;0.75;;;11.40;99.90;;;;;;5000566;28;20125;-80
2023/07/26 08:31:37;;;;;;;0.95;0.40;;;11.40;99.90;;;;;;5016757;28;20089;-80
2023/07/26 08:34:03;;;;;;;0.77;0.38;;;11.40;99.90;;;;;;5017587;28;20029;-81
2023/07/26 08:36:28;;;;;;;0.82;0.40;;;11.40;99.90;;;;;;4981775;28;20030;-80
2023/07/26 08:38:54;;;;;;;1.58;0.70;;;11.50;99.90;;;;;;5007610;28;20365;-80
2023/07/26 08:41:20;;;;;;;1.75;0.80;;;11.60;99.90;;;;;;5000381;28;20400;-80
2023/07/26 08:43:48;;;;;;;1.50;0.50;;;11.70;99.90;;;;;;5018082;28;20022;-81
2023/07/26 08:46:15;;;;;;;1.02;0.70;;;11.80;99.90;;;;;;5017875;28;20395;-80
2023/07/26 08:48:42;;;;;;;0.73;0.50;;;11.80;99.90;;;;;;5017419;28;20108;-80
2023/07/26 08:51:08;;;;;;;0.52;0.40;;;12.00;99.90;;;;;;5015158;28;20049;-81
2023/07/26 08:53:34;;;;;;;1.13;0.68;;;12.10;99.90;;;;;;4998259;28;20030;-80
2023/07/26 08:56:00;;;;;;;0.82;0.50;;;12.30;99.90;;;;;;4998229;28;20026;-80
2023/07/26 08:58:26;;;;;;;0.32;0.30;;;12.60;99.90;;;;;;4998086;28;20488;-80
2023/07/26 09:00:53;;;;;;;0.88;0.40;;;12.90;99.90;;;;;;5000968;28;20033;-81
2023/07/26 09:03:19;;;;;;;2.03;0.60;;;13.20;99.90;;;;;;4999121;28;20049;-81
2023/07/26 09:05:45;;;;;;;0.80;0.40;;;13.30;99.90;;;;;;5014685;28;21129;-80
2023/07/26 09:08:11;;;;;;;0.80;0.50;;;13.40;99.90;;;;;;4985628;28;20077;-80
2023/07/26 09:10:38;;;;;;;0.32;0.30;;;13.40;99.90;;;;;;4997576;28;20034;-80
2023/07/26 09:13:14;;;;;;;1.52;0.63;;;13.50;99.90;;;;;;4997453;28;20054;-80
2023/07/26 09:15:42;;;;;;;0.93;0.55;;;13.50;99.90;;;;;;4997384;28;20019;-79
2023/07/26 09:18:09;;;;;;;1.20;0.70;;;13.50;99.90;;;;;;4997172;28;20038;-79
2023/07/26 09:20:36;;;;;;;1.10;0.60;;;13.40;99.90;;;;;;4997012;28;20022;-80
2023/07/26 09:23:05;;;;;;;1.83;0.40;;;13.40;99.90;;;;;;5008005;28;20025;-80
2023/07/26 09:25:33;;;;;;;1.40;0.50;;;13.30;99.90;;;;;;5011118;28;20045;-80
2023/07/26 09:27:59;;;;;;;1.52;0.45;;;13.20;99.90;;;;;;5009656;28;20476;-79
2023/07/26 09:30:25;;;;;;;0.57;0.30;;;13.20;99.90;;;;;;4979290;28;20076;-80
2023/07/26 09:33:08;;;;;;;0.70;0.40;;;13.10;99.90;;;;;;5019661;28;20087;-81
2023/07/26 09:35:54;;;;;;;1.45;0.85;;;13.00;99.90;;;;;;5005326;28;20392;-80
2023/07/26 09:38:24;;;;;;;0.80;0.40;;;13.00;99.90;;;;;;4997743;28;20031;-80
2023/07/26 09:40:50;;;;;;;0.65;0.40;;;13.00;99.90;;;;;;5012130;28;20045;-80
2023/07/26 09:44:07;;;;;;;0.30;0.30;;;13.00;99.90;;;;;;5022305;28;20451;-79
2023/07/26 09:46:52;;;;;;;0.82;0.38;;;13.20;99.90;;;;;;4990189;28;20034;-81
2023/07/26 09:49:21;;;;;;;0.50;0.30;;;13.40;99.90;;;;;;5004704;28;20081;-80
2023/07/26 09:51:48;;;;;;;1.10;0.40;;;13.60;99.90;;;;;;5001641;28;20022;-80
2023/07/26 09:54:14;;;;;;;1.83;0.40;;;13.70;99.90;;;;;;5005386;28;20014;-80
2023/07/26 09:57:30;;;;;;;0.52;0.30;;;13.70;99.90;;;;;;5014630;28;20086;-80
2023/07/26 10:00:09;;;;;;;0.40;0.35;;;13.70;99.90;;;;;;4999499;28;20060;-81
2023/07/26 10:02:36;;;;;;;1.15;0.50;;;13.70;99.90;;;;;;4997145;28;20049;-80
2023/07/26 10:05:06;;;;;;;1.35;0.60;;;13.70;99.90;;;;;;4996706;28;20030;-81
2023/07/26 10:07:32;;;;;;;1.20;0.40;;;13.70;99.90;;;;;;4995533;28;20428;-80
2023/07/26 10:10:00;;;;;;;1.23;0.50;;;13.70;99.90;;;;;;5014294;28;20519;-80
2023/07/26 10:12:29;;;;;;;0.68;0.40;;;13.60;99.90;;;;;;5017033;28;20041;-80
2023/07/26 10:14:56;;;;;;;0.90;0.50;;;13.60;99.90;;;;;;5017248;28;20041;-79
2023/07/26 10:17:24;;;;;;;1.23;0.50;;;13.60;99.90;;;;;;5017694;28;20029;-80
2023/07/26 10:19:52;;;;;;;1.15;0.85;;;13.70;99.90;;;;;;5023804;28;20030;-79
2023/07/26 10:22:18;;;;;;;5.20;0.52;;;13.90;99.90;;;;;;5017619;28;20036;-80
2023/07/26 10:24:45;;;;;;;1.05;0.50;;;14.30;99.90;;;;;;5015577;28;20036;-80
2023/07/26 10:27:12;;;;;;;1.15;0.50;;;14.40;99.90;;;;;;5015974;28;20029;-80
2023/07/26 10:30:39;;;;;;;0.82;0.50;;;14.40;99.90;;;;;;4968472;28;20027;-80
2023/07/26 10:33:21;;;;;;;2.75;0.40;;;14.40;99.90;;;;;;4939893;28;20063;-81
2023/07/26 10:36:10;;;;;;;1.10;0.60;;;14.40;99.90;;;;;;5002979;28;20113;-79
2023/07/26 10:38:40;;;;;;;1.92;0.50;;;14.20;99.90;;;;;;5002148;28;20038;-81
2023/07/26 10:44:28;;;;;;;0.70;0.45;;;14.30;99.90;;;;;;5000809;28;20033;-81
2023/07/26 10:47:01;;;;;;;0.52;0.40;;;14.30;99.90;;;;;;5004174;28;20450;-80
2023/07/26 10:49:32;;;;;;;0.98;0.60;;;14.30;99.90;;;;;;5007788;28;20476;-80
2023/07/26 10:52:03;;;;;;;0.90;0.45;;;14.40;99.90;;;;;;5013754;28;20030;-81
2023/07/26 10:54:41;;;;;;;;;;;14.60;99.90;;;;;;5002117;28;20101;-80
2023/07/26 10:57:13;;;;;;;1.33;0.60;;;14.80;99.90;;;;;;5012783;28;19913;-80
2023/07/26 11:03:24;;;;;;;1.00;0.40;;;15.50;99.90;;;;;;4961889;28;20096;-81
2023/07/26 11:05:56;;;;;;;1.23;0.47;;;15.70;99.90;;;;;;4990600;28;20045;-81
2023/07/26 11:08:41;;;;;;;0.75;0.50;;;16.00;99.90;;;;;;5007771;28;20068;-80
2023/07/26 11:11:10;;;;;;;1.00;0.50;;;16.30;99.90;;;;;;5016629;28;20054;-80
2023/07/26 11:13:36;;;;;;;0.75;0.50;;;16.60;99.90;;;;;;4984049;28;20031;-81
2023/07/26 11:16:02;;;;;;;0.85;0.57;;;16.80;99.90;;;;;;5000161;28;20511;-79
2023/07/26 11:19:11;;;;;;;1.67;0.45;;;17.00;99.90;;;;;;5005840;28;20018;-80
2023/07/26 11:28:27;;;;;;;1.23;0.45;;;17.70;99.90;;;;;;5016777;28;20045;-79
2023/07/26 11:30:54;;;;;;;1.00;0.63;;;17.60;99.90;;;;;;5002486;28;20022;-79
2023/07/26 11:33:31;;;;;;;2.25;0.60;;;17.50;99.90;;;;;;5002371;28;20037;-80
2023/07/26 11:35:59;;;;;;;1.02;0.40;;;17.40;99.90;;;;;;4995934;28;20485;-80
2023/07/26 11:38:25;;;;;;;1.75;0.60;;;17.50;99.90;;;;;;5010118;28;20029;-79
2023/07/26 11:40:53;;;;;;;1.95;0.57;;;17.70;99.90;;;;;;5000340;28;20049;-80
2023/07/26 11:43:20;;;;;;;1.23;0.60;;;17.90;99.90;;;;;;5020841;28;20025;-79
2023/07/26 11:45:46;;;;;;;2.35;0.50;;;18.10;99.90;;;;;;5018626;28;20027;-80
2023/07/26 11:51:34;;;;;;;1.80;0.50;;;18.30;99.90;;;;;;5009074;28;20507;-80
2023/07/26 11:54:00;;;;;;;1.88;0.90;;;18.50;99.90;;;;;;5011801;28;20026;-79
2023/07/26 11:56:29;;;;;;;1.25;0.60;;;18.60;99.90;;;;;;4996296;28;20117;-79
2023/07/26 11:58:56;;;;;;;3.58;0.70;;;18.70;99.90;;;;;;5020454;28;20029;-80
2023/07/26 12:01:22;;;;;;;1.17;0.70;;;18.80;99.90;;;;;;5019417;28;20026;-79
2023/07/26 12:03:48;;;;;;;1.13;0.70;;;19.00;99.90;;;;;;5023449;28;20114;-79
2023/07/26 12:06:14;;;;;;;1.17;0.50;;;19.20;99.90;;;;;;5032927;28;20030;-79
2023/07/26 12:08:41;;;;;;;1.25;0.70;;;19.20;99.90;;;;;;5033129;28;20079;-79
2023/07/26 12:11:07;;;;;;;2.08;0.70;;;19.20;99.90;;;;;;5010379;28;20560;-80
2023/07/26 12:13:34;;;;;;;1.38;0.70;;;19.40;99.90;;;;;;5008189;28;20064;-81
2023/07/26 12:16:01;;;;;;;1.63;0.70;;;19.50;99.10;;;;;;5009687;28;20387;-79
2023/07/26 12:18:27;;;;;;;1.02;0.50;;;19.50;98.90;;;;;;5015225;28;20022;-81
2023/07/26 12:20:59;;;;;;;0.95;0.50;;;19.60;96.60;;;;;;5004273;28;20101;-79
2023/07/26 12:23:26;;;;;;;1.08;0.63;;;19.70;96.70;;;;;;5007196;28;20030;-80
2023/07/26 12:25:54;;;;;;;1.38;0.77;;;19.80;99.40;;;;;;5018918;28;20037;-79
2023/07/26 12:28:20;;;;;;;2.10;0.82;;;20.00;99.30;;;;;;5023699;28;20032;-80
2023/07/26 12:30:56;;;;;;;2.53;0.80;;;20.10;95.00;;;;;;5025217;28;20026;-80
2023/07/26 12:33:24;;;;;;;1.38;0.50;;;20.30;97.80;;;;;;5023945;28;20052;-79
2023/07/26 12:35:54;;;;;;;1.55;0.70;;;20.20;95.40;;;;;;5033332;28;20026;-80
2023/07/26 12:38:23;;;;;;;1.30;0.60;;;20.10;94.40;;;;;;5032547;28;20134;-79
2023/07/26 12:40:51;;;;;;;2.10;0.80;;;19.90;96.10;;;;;;5029749;28;20057;-80
2023/07/26 12:43:21;;;;;;;1.23;0.70;;;19.80;93.90;;;;;;5000467;28;20033;-79
2023/07/26 12:45:46;;;;;;;1.42;0.80;;;19.60;91.80;;;;;;5022714;28;20021;-79
2023/07/26 12:48:12;;;;;;;1.33;0.70;;;19.60;93.60;;;;;;5007776;28;20425;-80
2023/07/26 12:50:39;;;;;;;1.05;0.70;;;19.70;95.40;;;;;;5012314;28;20471;-80
2023/07/26 12:53:06;;;;;;;1.35;0.82;;;19.70;94.70;;;;;;5013330;28;20488;-80
2023/07/26 12:55:32;;;;;;;1.92;0.77;;;19.70;95.70;;;;;;5010547;28;20476;-80
2023/07/26 12:57:58;;;;;;;2.10;0.73;;;19.80;93.40;;;;;;5015688;28;20478;-81
2023/07/26 13:00:24;;;;;;;1.17;0.70;;;19.80;93.60;;;;;;5021402;28;20070;-81
2023/07/26 13:02:50;;;;;;;0.77;0.57;;;19.90;94.10;;;;;;5004512;28;20504;-80
2023/07/26 13:05:18;;;;;;;1.88;0.77;;;20.10;94.40;;;;;;5005493;28;20037;-79
2023/07/26 13:07:47;;;;;;;1.27;0.60;;;20.40;92.90;;;;;;4995287;28;20555;-80
2023/07/26 13:10:13;;;;;;;3.45;0.77;;;20.70;92.20;;;;;;5010480;28;20060;-79